BAW816 EGLL-EKCH
Flight info
| Callsign | BAW816 |
|---|---|
| Flight time | 1h 39m |
| Altitude | 35000 |
| Route | BPK Q295 PAAVO M604 GIVPO DCT VENAS DCT LARGA DCT SOPTO DCT DOREV DCT TESPI |
| Aircraft | A21N/M-SDE3FGHIRWY/LB1 |
Departure
| Time | 2026-04-21 17:11 |
|---|---|
| Airport | London Heathrow Airport (EGLL) |
Arrival
| Time | 2026-04-21 18:50 |
|---|---|
| Airport | Copenhagen Kastrup Airport (EKCH) |
| Time | Latitude | Longitude | Altitude | Speed | Heading |
|---|---|---|---|---|---|
| 2026-04-21 16:37 | 51.47401 | -0.48758 | 83 ft | 0 kts | 180° |
| 2026-04-21 16:57 | 51.47410 | -0.48758 | 83 ft | 2 kts | 188° |
| 2026-04-21 16:57 | 51.47425 | -0.48754 | 83 ft | 2 kts | 185° |
| 2026-04-21 16:57 | 51.47440 | -0.48753 | 83 ft | 2 kts | 185° |
| 2026-04-21 16:57 | 51.47455 | -0.48750 | 83 ft | 2 kts | 186° |
| 2026-04-21 16:58 | 51.47470 | -0.48748 | 83 ft | 2 kts | 185° |
| 2026-04-21 16:58 | 51.47479 | -0.48747 | 83 ft | 1 kts | 187° |
| 2026-04-21 16:58 | 51.47485 | -0.48749 | 83 ft | 1 kts | 125° |
| 2026-04-21 16:58 | 51.47487 | -0.48757 | 83 ft | 1 kts | 83° |
| 2026-04-21 16:59 | 51.47487 | -0.48766 | 83 ft | 0 kts | 90° |
| 2026-04-21 17:01 | 51.47487 | -0.48759 | 83 ft | 2 kts | 91° |
| 2026-04-21 17:02 | 51.47486 | -0.48709 | 83 ft | 7 kts | 91° |
| 2026-04-21 17:02 | 51.47487 | -0.48579 | 83 ft | 15 kts | 89° |
| 2026-04-21 17:02 | 51.47433 | -0.48477 | 83 ft | 13 kts | 175° |
| 2026-04-21 17:02 | 51.47332 | -0.48475 | 83 ft | 15 kts | 180° |
| 2026-04-21 17:03 | 51.47210 | -0.48473 | 83 ft | 19 kts | 179° |
| 2026-04-21 17:03 | 51.47069 | -0.48472 | 83 ft | 21 kts | 179° |
| 2026-04-21 17:03 | 51.46921 | -0.48470 | 83 ft | 21 kts | 179° |
| 2026-04-21 17:03 | 51.46790 | -0.48470 | 83 ft | 18 kts | 183° |
| 2026-04-21 17:04 | 51.46744 | -0.48569 | 83 ft | 9 kts | 250° |
| 2026-04-21 17:04 | 51.46739 | -0.48670 | 83 ft | 10 kts | 269° |
| 2026-04-21 17:04 | 51.46695 | -0.48749 | 83 ft | 11 kts | 184° |
| 2026-04-21 17:04 | 51.46628 | -0.48762 | 83 ft | 6 kts | 189° |
| 2026-04-21 17:05 | 51.46599 | -0.48769 | 83 ft | 0 kts | 197° |
| 2026-04-21 17:08 | 51.46595 | -0.48771 | 83 ft | 2 kts | 197° |
| 2026-04-21 17:09 | 51.46500 | -0.48766 | 83 ft | 11 kts | 141° |
| 2026-04-21 17:09 | 51.46477 | -0.48679 | 83 ft | 0 kts | 92° |
| 2026-04-21 17:10 | 51.46477 | -0.48553 | 83 ft | 43 kts | 90° |
| 2026-04-21 17:10 | 51.46481 | -0.47683 | 83 ft | 111 kts | 90° |
| 2026-04-21 17:10 | 51.46486 | -0.46099 | 94 ft | 166 kts | 89° |
| 2026-04-21 17:10 | 51.46502 | -0.44181 | 568 ft | 176 kts | 87° |
| 2026-04-21 17:11 | 51.46555 | -0.42230 | 1341 ft | 178 kts | 83° |
| 2026-04-21 17:11 | 51.47011 | -0.40445 | 2134 ft | 179 kts | 55° |
| 2026-04-21 17:11 | 51.47829 | -0.38915 | 2706 ft | 193 kts | 52° |
| 2026-04-21 17:11 | 51.48773 | -0.37194 | 3117 ft | 217 kts | 52° |
| 2026-04-21 17:12 | 51.49796 | -0.35295 | 3622 ft | 236 kts | 52° |
| 2026-04-21 17:12 | 51.50906 | -0.33233 | 4250 ft | 250 kts | 52° |
| 2026-04-21 17:12 | 51.52027 | -0.31159 | 4868 ft | 244 kts | 52° |
| 2026-04-21 17:12 | 51.53034 | -0.28995 | 5028 ft | 243 kts | 67° |
| 2026-04-21 17:13 | 51.53494 | -0.26446 | 4993 ft | 239 kts | 78° |
| 2026-04-21 17:13 | 51.53862 | -0.23835 | 4979 ft | 239 kts | 76° |
| 2026-04-21 17:13 | 51.54315 | -0.21240 | 4974 ft | 240 kts | 71° |
| 2026-04-21 17:13 | 51.55188 | -0.19004 | 4964 ft | 243 kts | 46° |
| 2026-04-21 17:14 | 51.56638 | -0.17580 | 4965 ft | 250 kts | 23° |
| 2026-04-21 17:14 | 51.58394 | -0.17205 | 4973 ft | 259 kts | 5° |
| 2026-04-21 17:14 | 51.60180 | -0.17133 | 4963 ft | 256 kts | 14° |
| 2026-04-21 17:14 | 51.61917 | -0.16530 | 4970 ft | 254 kts | 19° |
| 2026-04-21 17:15 | 51.63629 | -0.15835 | 4972 ft | 254 kts | 20° |
| 2026-04-21 17:15 | 51.65325 | -0.15097 | 5147 ft | 259 kts | 20° |
| 2026-04-21 17:15 | 51.67064 | -0.14315 | 5944 ft | 262 kts | 21° |
| 2026-04-21 17:15 | 51.68809 | -0.13521 | 6909 ft | 261 kts | 21° |
| 2026-04-21 17:16 | 51.70537 | -0.12725 | 7695 ft | 264 kts | 21° |
| 2026-04-21 17:16 | 51.72308 | -0.11906 | 8484 ft | 268 kts | 21° |
| 2026-04-21 17:16 | 51.73952 | -0.10615 | 9234 ft | 264 kts | 44° |
| 2026-04-21 17:16 | 51.75030 | -0.08294 | 10000 ft | 260 kts | 69° |
| 2026-04-21 17:17 | 51.75438 | -0.05463 | 10749 ft | 263 kts | 82° |
| 2026-04-21 17:17 | 51.75678 | -0.02493 | 11131 ft | 279 kts | 82° |
| 2026-04-21 17:17 | 51.75938 | 0.00733 | 11449 ft | 297 kts | 82° |
| 2026-04-21 17:17 | 51.76212 | 0.04084 | 11778 ft | 313 kts | 82° |
| 2026-04-21 17:18 | 51.76506 | 0.07668 | 12030 ft | 330 kts | 82° |
| 2026-04-21 17:18 | 51.76816 | 0.11442 | 12369 ft | 344 kts | 82° |
| 2026-04-21 17:18 | 51.77132 | 0.15299 | 12955 ft | 351 kts | 82° |
| 2026-04-21 17:18 | 51.77453 | 0.19229 | 13564 ft | 354 kts | 82° |
| 2026-04-21 17:19 | 51.77775 | 0.23179 | 14206 ft | 359 kts | 82° |
| 2026-04-21 17:19 | 51.78096 | 0.27149 | 14816 ft | 363 kts | 82° |
| 2026-04-21 17:19 | 51.78422 | 0.31196 | 15406 ft | 366 kts | 82° |
| 2026-04-21 17:19 | 51.78751 | 0.35302 | 16023 ft | 370 kts | 82° |
| 2026-04-21 17:20 | 51.79081 | 0.39423 | 16581 ft | 374 kts | 82° |
| 2026-04-21 17:20 | 51.79414 | 0.43596 | 17177 ft | 378 kts | 81° |
| 2026-04-21 17:20 | 51.79749 | 0.47811 | 17778 ft | 382 kts | 81° |
| 2026-04-21 17:20 | 51.80086 | 0.52077 | 18302 ft | 385 kts | 81° |
| 2026-04-21 17:21 | 51.80426 | 0.56399 | 18816 ft | 389 kts | 81° |
| 2026-04-21 17:21 | 51.80786 | 0.60699 | 19364 ft | 392 kts | 79° |
| 2026-04-21 17:21 | 51.81356 | 0.65020 | 19868 ft | 394 kts | 74° |
| 2026-04-21 17:21 | 51.82183 | 0.69264 | 20340 ft | 397 kts | 69° |
| 2026-04-21 17:22 | 51.83222 | 0.73447 | 20857 ft | 400 kts | 66° |
| 2026-04-21 17:22 | 51.84304 | 0.77585 | 21339 ft | 403 kts | 65° |
| 2026-04-21 17:22 | 51.85461 | 0.81692 | 21777 ft | 405 kts | 60° |
| 2026-04-21 17:22 | 51.86990 | 0.85601 | 22219 ft | 407 kts | 52° |
| 2026-04-21 17:23 | 51.88849 | 0.89058 | 22646 ft | 409 kts | 44° |
| 2026-04-21 17:23 | 51.90923 | 0.92180 | 23069 ft | 412 kts | 41° |
| 2026-04-21 17:23 | 51.93059 | 0.95263 | 23526 ft | 414 kts | 40° |
| 2026-04-21 17:23 | 51.95221 | 0.98365 | 23950 ft | 417 kts | 40° |
| 2026-04-21 17:24 | 51.97393 | 1.01497 | 24349 ft | 420 kts | 40° |
| 2026-04-21 17:24 | 51.99559 | 1.04649 | 24684 ft | 424 kts | 40° |
| 2026-04-21 17:24 | 52.01755 | 1.07861 | 25032 ft | 426 kts | 40° |
| 2026-04-21 17:24 | 52.03965 | 1.11077 | 25377 ft | 429 kts | 39° |
| 2026-04-21 17:25 | 52.06268 | 1.14167 | 25708 ft | 430 kts | 36° |
| 2026-04-21 17:25 | 52.08649 | 1.17124 | 26025 ft | 432 kts | 35° |
| 2026-04-21 17:25 | 52.11066 | 1.20063 | 26356 ft | 434 kts | 35° |
| 2026-04-21 17:25 | 52.13456 | 1.23141 | 26674 ft | 437 kts | 36° |
| 2026-04-21 17:26 | 52.15802 | 1.26278 | 27007 ft | 438 kts | 37° |
| 2026-04-21 17:26 | 52.18160 | 1.29470 | 27431 ft | 437 kts | 37° |
| 2026-04-21 17:26 | 52.20495 | 1.32647 | 27880 ft | 435 kts | 37° |
| 2026-04-21 17:26 | 52.22836 | 1.35838 | 28302 ft | 434 kts | 36° |
| 2026-04-21 17:27 | 52.25144 | 1.38984 | 28713 ft | 433 kts | 36° |
| 2026-04-21 17:27 | 52.27436 | 1.42109 | 29128 ft | 432 kts | 37° |
| 2026-04-21 17:27 | 52.29713 | 1.45216 | 29523 ft | 430 kts | 37° |
| 2026-04-21 17:27 | 52.32004 | 1.48366 | 29907 ft | 430 kts | 37° |
| 2026-04-21 17:28 | 52.34204 | 1.51632 | 30277 ft | 430 kts | 40° |
| 2026-04-21 17:28 | 52.36311 | 1.55058 | 30650 ft | 429 kts | 41° |
| 2026-04-21 17:28 | 52.38412 | 1.58569 | 31022 ft | 428 kts | 42° |
| 2026-04-21 17:28 | 52.40461 | 1.62019 | 31341 ft | 427 kts | 42° |
| 2026-04-21 17:29 | 52.42514 | 1.65484 | 31640 ft | 426 kts | 43° |
| 2026-04-21 17:29 | 52.44582 | 1.68989 | 31902 ft | 426 kts | 43° |
| 2026-04-21 17:29 | 52.46639 | 1.72477 | 32138 ft | 426 kts | 43° |
| 2026-04-21 17:29 | 52.48686 | 1.75951 | 32379 ft | 426 kts | 43° |
| 2026-04-21 17:30 | 52.50729 | 1.79411 | 32619 ft | 426 kts | 43° |
| 2026-04-21 17:30 | 52.52811 | 1.82941 | 32858 ft | 426 kts | 43° |
| 2026-04-21 17:30 | 52.54855 | 1.86414 | 33087 ft | 425 kts | 43° |
| 2026-04-21 17:30 | 52.56906 | 1.89904 | 33292 ft | 425 kts | 43° |
| 2026-04-21 17:31 | 52.58944 | 1.93376 | 33487 ft | 426 kts | 43° |
| 2026-04-21 17:31 | 52.60988 | 1.96860 | 33679 ft | 426 kts | 43° |
| 2026-04-21 17:31 | 52.63050 | 2.00379 | 33818 ft | 427 kts | 43° |
| 2026-04-21 17:31 | 52.65099 | 2.03886 | 33951 ft | 428 kts | 43° |
| 2026-04-21 17:32 | 52.67184 | 2.07458 | 34075 ft | 429 kts | 43° |
| 2026-04-21 17:32 | 52.69239 | 2.10983 | 34208 ft | 430 kts | 43° |
| 2026-04-21 17:32 | 52.71302 | 2.14524 | 34336 ft | 431 kts | 43° |
| 2026-04-21 17:32 | 52.73376 | 2.18089 | 34463 ft | 432 kts | 44° |
| 2026-04-21 17:33 | 52.75438 | 2.21637 | 34609 ft | 432 kts | 44° |
| 2026-04-21 17:33 | 52.77514 | 2.25216 | 34749 ft | 433 kts | 44° |
| 2026-04-21 17:33 | 52.79604 | 2.28824 | 34884 ft | 433 kts | 44° |
| 2026-04-21 17:33 | 52.81667 | 2.32395 | 35012 ft | 434 kts | 44° |
| 2026-04-21 17:34 | 52.83743 | 2.35988 | 35140 ft | 434 kts | 44° |
| 2026-04-21 17:34 | 52.85823 | 2.39594 | 35254 ft | 435 kts | 44° |
| 2026-04-21 17:34 | 52.89997 | 2.46857 | 35293 ft | 436 kts | 44° |
| 2026-04-21 17:35 | 52.94227 | 2.54003 | 35298 ft | 435 kts | 41° |
| 2026-04-21 17:35 | 52.98821 | 2.60425 | 35303 ft | 435 kts | 35° |
| 2026-04-21 17:36 | 53.03826 | 2.66016 | 35324 ft | 434 kts | 30° |
| 2026-04-21 17:36 | 53.09162 | 2.70782 | 35324 ft | 433 kts | 26° |
| 2026-04-21 17:37 | 53.14552 | 2.75221 | 35322 ft | 432 kts | 26° |
| 2026-04-21 17:37 | 53.19914 | 2.79646 | 35325 ft | 433 kts | 26° |
| 2026-04-21 17:38 | 53.25284 | 2.84116 | 35327 ft | 433 kts | 26° |
| 2026-04-21 17:38 | 53.30712 | 2.88490 | 35323 ft | 433 kts | 24° |
| 2026-04-21 17:39 | 53.36188 | 2.92602 | 35343 ft | 433 kts | 24° |
| 2026-04-21 17:39 | 53.41656 | 2.96702 | 35344 ft | 432 kts | 24° |
| 2026-04-21 17:40 | 53.47120 | 3.00817 | 35343 ft | 432 kts | 25° |
| 2026-04-21 17:40 | 53.52622 | 3.04977 | 35349 ft | 433 kts | 25° |
| 2026-04-21 17:41 | 53.58073 | 3.09109 | 35345 ft | 433 kts | 25° |
| 2026-04-21 17:41 | 53.63541 | 3.13269 | 35340 ft | 433 kts | 25° |
| 2026-04-21 17:42 | 53.69022 | 3.17447 | 35352 ft | 433 kts | 25° |
| 2026-04-21 17:42 | 53.74482 | 3.21622 | 35357 ft | 433 kts | 25° |
| 2026-04-21 17:43 | 53.79955 | 3.25822 | 35363 ft | 434 kts | 25° |
| 2026-04-21 17:43 | 53.85434 | 3.30038 | 35357 ft | 434 kts | 25° |
| 2026-04-21 17:44 | 53.90934 | 3.34282 | 35369 ft | 434 kts | 25° |
| 2026-04-21 17:44 | 53.96405 | 3.38513 | 35366 ft | 435 kts | 26° |
| 2026-04-21 17:45 | 54.01911 | 3.42783 | 35364 ft | 435 kts | 26° |
| 2026-04-21 17:45 | 54.07385 | 3.47045 | 35362 ft | 435 kts | 26° |
| 2026-04-21 17:46 | 54.12881 | 3.51325 | 35369 ft | 436 kts | 26° |
| 2026-04-21 17:46 | 54.18387 | 3.55616 | 35371 ft | 436 kts | 26° |
| 2026-04-21 17:47 | 54.23871 | 3.59917 | 35376 ft | 436 kts | 26° |
| 2026-04-21 17:47 | 54.29386 | 3.64261 | 35378 ft | 437 kts | 26° |
| 2026-04-21 17:48 | 54.34779 | 3.68899 | 35384 ft | 436 kts | 30° |
| 2026-04-21 17:48 | 54.40152 | 3.73702 | 35376 ft | 437 kts | 30° |
| 2026-04-21 17:49 | 54.45524 | 3.78498 | 35372 ft | 437 kts | 30° |
| 2026-04-21 17:49 | 54.50927 | 3.83325 | 35369 ft | 438 kts | 30° |
| 2026-04-21 17:50 | 54.56297 | 3.88134 | 35374 ft | 438 kts | 30° |
| 2026-04-21 17:50 | 54.61694 | 3.92977 | 35377 ft | 439 kts | 30° |
| 2026-04-21 17:51 | 54.67102 | 3.97843 | 35372 ft | 439 kts | 30° |
| 2026-04-21 17:51 | 54.72488 | 4.02704 | 35366 ft | 439 kts | 30° |
| 2026-04-21 17:52 | 54.77885 | 4.07591 | 35383 ft | 440 kts | 31° |
| 2026-04-21 17:52 | 54.83087 | 4.12974 | 35377 ft | 438 kts | 37° |
| 2026-04-21 17:53 | 54.87911 | 4.19316 | 35374 ft | 436 kts | 43° |
| 2026-04-21 17:53 | 54.92289 | 4.26528 | 35379 ft | 434 kts | 49° |
| 2026-04-21 17:54 | 54.96369 | 4.34216 | 35378 ft | 433 kts | 50° |
| 2026-04-21 17:54 | 55.00415 | 4.41929 | 35381 ft | 433 kts | 50° |
| 2026-04-21 17:55 | 55.04471 | 4.49669 | 35390 ft | 434 kts | 50° |
| 2026-04-21 17:55 | 55.08540 | 4.57447 | 35388 ft | 434 kts | 50° |
| 2026-04-21 17:56 | 55.12622 | 4.65247 | 35389 ft | 434 kts | 51° |
| 2026-04-21 17:56 | 55.16660 | 4.72992 | 35380 ft | 434 kts | 51° |
| 2026-04-21 17:57 | 55.20695 | 4.80785 | 35388 ft | 434 kts | 51° |
| 2026-04-21 17:57 | 55.24709 | 4.88616 | 35386 ft | 433 kts | 53° |
| 2026-04-21 17:58 | 55.28160 | 4.97218 | 35387 ft | 429 kts | 63° |
| 2026-04-21 17:58 | 55.30650 | 5.06566 | 35387 ft | 426 kts | 72° |
| 2026-04-21 17:59 | 55.32175 | 5.16500 | 35385 ft | 423 kts | 81° |
| 2026-04-21 17:59 | 55.33076 | 5.25598 | 35381 ft | 423 kts | 82° |
| 2026-04-21 18:00 | 55.34042 | 5.35720 | 35383 ft | 423 kts | 82° |
| 2026-04-21 18:00 | 55.35007 | 5.45862 | 35384 ft | 423 kts | 82° |
| 2026-04-21 18:01 | 55.35973 | 5.56044 | 35384 ft | 422 kts | 82° |
| 2026-04-21 18:01 | 55.36932 | 5.66238 | 35356 ft | 422 kts | 83° |
| 2026-04-21 18:02 | 55.37875 | 5.76385 | 35363 ft | 422 kts | 83° |
| 2026-04-21 18:02 | 55.38806 | 5.86495 | 35357 ft | 423 kts | 83° |
| 2026-04-21 18:03 | 55.39737 | 5.96679 | 35364 ft | 423 kts | 82° |
| 2026-04-21 18:03 | 55.40664 | 6.06897 | 35363 ft | 422 kts | 82° |
| 2026-04-21 18:04 | 55.41570 | 6.17005 | 35370 ft | 421 kts | 82° |
| 2026-04-21 18:04 | 55.42471 | 6.27154 | 35370 ft | 422 kts | 82° |
| 2026-04-21 18:05 | 55.43373 | 6.37382 | 35375 ft | 422 kts | 82° |
| 2026-04-21 18:05 | 55.44253 | 6.47500 | 35373 ft | 422 kts | 82° |
| 2026-04-21 18:06 | 55.45134 | 6.57714 | 35372 ft | 422 kts | 82° |
| 2026-04-21 18:06 | 55.46004 | 6.67900 | 35371 ft | 421 kts | 83° |
| 2026-04-21 18:07 | 55.46859 | 6.78045 | 35367 ft | 421 kts | 83° |
| 2026-04-21 18:07 | 55.47716 | 6.88288 | 35365 ft | 421 kts | 83° |
| 2026-04-21 18:08 | 55.48560 | 6.98467 | 35365 ft | 420 kts | 82° |
| 2026-04-21 18:08 | 55.49391 | 7.08608 | 35354 ft | 419 kts | 82° |
| 2026-04-21 18:09 | 55.50206 | 7.18662 | 35345 ft | 418 kts | 82° |
| 2026-04-21 18:09 | 55.51019 | 7.28780 | 35342 ft | 418 kts | 82° |
| 2026-04-21 18:10 | 55.51828 | 7.38947 | 35335 ft | 418 kts | 82° |
| 2026-04-21 18:10 | 55.52623 | 7.49067 | 35336 ft | 419 kts | 82° |
| 2026-04-21 18:11 | 55.53512 | 7.59194 | 35331 ft | 419 kts | 78° |
| 2026-04-21 18:11 | 55.54806 | 7.69150 | 35335 ft | 418 kts | 77° |
| 2026-04-21 18:12 | 55.56162 | 7.79175 | 35333 ft | 418 kts | 77° |
| 2026-04-21 18:12 | 55.57496 | 7.89077 | 35337 ft | 418 kts | 77° |
| 2026-04-21 18:13 | 55.58833 | 7.99062 | 35336 ft | 418 kts | 77° |
| 2026-04-21 18:13 | 55.60160 | 8.09041 | 35346 ft | 418 kts | 77° |
| 2026-04-21 18:14 | 55.62135 | 8.24031 | 35344 ft | 417 kts | 77° |
| 2026-04-21 18:15 | 55.63433 | 8.33961 | 35349 ft | 417 kts | 77° |
| 2026-04-21 18:15 | 55.64726 | 8.43932 | 35345 ft | 417 kts | 77° |
| 2026-04-21 18:16 | 55.66014 | 8.53931 | 35342 ft | 417 kts | 76° |
| 2026-04-21 18:16 | 55.67285 | 8.63856 | 35335 ft | 416 kts | 76° |
| 2026-04-21 18:17 | 55.68557 | 8.73876 | 35340 ft | 416 kts | 77° |
| 2026-04-21 18:17 | 55.69808 | 8.83826 | 35333 ft | 415 kts | 77° |
| 2026-04-21 18:18 | 55.71051 | 8.93757 | 35332 ft | 415 kts | 77° |
| 2026-04-21 18:18 | 55.72288 | 9.03696 | 35333 ft | 415 kts | 77° |
| 2026-04-21 18:19 | 55.73522 | 9.13682 | 35330 ft | 414 kts | 77° |
| 2026-04-21 18:19 | 55.74743 | 9.23632 | 35331 ft | 414 kts | 77° |
| 2026-04-21 18:20 | 55.75957 | 9.33609 | 35329 ft | 414 kts | 77° |
| 2026-04-21 18:20 | 55.77158 | 9.43537 | 35329 ft | 414 kts | 77° |
| 2026-04-21 18:21 | 55.78361 | 9.53567 | 35319 ft | 414 kts | 77° |
| 2026-04-21 18:21 | 55.79553 | 9.63578 | 35322 ft | 414 kts | 77° |
| 2026-04-21 18:22 | 55.80727 | 9.73529 | 35104 ft | 414 kts | 77° |
| 2026-04-21 18:22 | 55.81316 | 9.78540 | 34409 ft | 417 kts | 77° |
| 2026-04-21 18:22 | 55.81904 | 9.83562 | 33534 ft | 421 kts | 77° |
| 2026-04-21 18:22 | 55.82502 | 9.88683 | 32671 ft | 423 kts | 77° |
| 2026-04-21 18:23 | 55.83093 | 9.93766 | 31857 ft | 424 kts | 77° |
| 2026-04-21 18:23 | 55.83692 | 9.98939 | 31008 ft | 425 kts | 77° |
| 2026-04-21 18:23 | 55.84280 | 10.04041 | 30260 ft | 423 kts | 77° |
| 2026-04-21 18:23 | 55.84861 | 10.09095 | 29597 ft | 420 kts | 77° |
| 2026-04-21 18:24 | 55.85444 | 10.14185 | 28939 ft | 417 kts | 77° |
| 2026-04-21 18:24 | 55.86013 | 10.19151 | 28265 ft | 415 kts | 77° |
| 2026-04-21 18:24 | 55.86581 | 10.24141 | 27584 ft | 413 kts | 78° |
| 2026-04-21 18:24 | 55.87151 | 10.29151 | 26874 ft | 412 kts | 78° |
| 2026-04-21 18:25 | 55.87715 | 10.34147 | 26324 ft | 408 kts | 78° |
| 2026-04-21 18:25 | 55.88259 | 10.38990 | 25892 ft | 403 kts | 78° |
| 2026-04-21 18:25 | 55.88805 | 10.43881 | 25436 ft | 399 kts | 78° |
| 2026-04-21 18:25 | 55.89251 | 10.48659 | 24979 ft | 395 kts | 83° |
| 2026-04-21 18:26 | 55.89356 | 10.53539 | 24508 ft | 393 kts | 89° |
| 2026-04-21 18:26 | 55.89114 | 10.58344 | 24026 ft | 392 kts | 96° |
| 2026-04-21 18:26 | 55.88604 | 10.63059 | 23548 ft | 389 kts | 99° |
| 2026-04-21 18:26 | 55.88037 | 10.67801 | 23038 ft | 386 kts | 100° |
| 2026-04-21 18:27 | 55.87477 | 10.72411 | 22535 ft | 383 kts | 100° |
| 2026-04-21 18:27 | 55.86918 | 10.77010 | 22030 ft | 380 kts | 100° |
| 2026-04-21 18:27 | 55.86358 | 10.81583 | 21522 ft | 378 kts | 99° |
| 2026-04-21 18:27 | 55.85800 | 10.86137 | 21015 ft | 375 kts | 99° |
| 2026-04-21 18:28 | 55.85245 | 10.90648 | 20523 ft | 372 kts | 99° |
| 2026-04-21 18:28 | 55.84652 | 10.95070 | 20037 ft | 371 kts | 102° |
| 2026-04-21 18:28 | 55.84005 | 10.99482 | 19545 ft | 368 kts | 102° |
| 2026-04-21 18:28 | 55.83361 | 11.03857 | 19059 ft | 366 kts | 102° |
| 2026-04-21 18:29 | 55.82719 | 11.08214 | 18570 ft | 364 kts | 102° |
| 2026-04-21 18:29 | 55.82081 | 11.12529 | 18089 ft | 362 kts | 102° |
| 2026-04-21 18:29 | 55.81440 | 11.16851 | 17619 ft | 360 kts | 102° |
| 2026-04-21 18:29 | 55.80814 | 11.21074 | 17388 ft | 349 kts | 102° |
| 2026-04-21 18:30 | 55.80204 | 11.25168 | 17302 ft | 335 kts | 102° |
| 2026-04-21 18:30 | 55.79620 | 11.29081 | 17203 ft | 321 kts | 101° |
| 2026-04-21 18:30 | 55.79064 | 11.32793 | 17099 ft | 308 kts | 101° |
| 2026-04-21 18:30 | 55.78522 | 11.36406 | 17017 ft | 295 kts | 101° |
| 2026-04-21 18:31 | 55.78003 | 11.39862 | 16944 ft | 283 kts | 101° |
| 2026-04-21 18:31 | 55.77554 | 11.43254 | 16623 ft | 281 kts | 97° |
| 2026-04-21 18:31 | 55.77249 | 11.46665 | 16268 ft | 278 kts | 93° |
| 2026-04-21 18:31 | 55.77054 | 11.50029 | 15930 ft | 276 kts | 92° |
| 2026-04-21 18:32 | 55.76867 | 11.53421 | 15599 ft | 274 kts | 92° |
| 2026-04-21 18:32 | 55.76683 | 11.56757 | 15269 ft | 272 kts | 92° |
| 2026-04-21 18:32 | 55.76499 | 11.60071 | 14947 ft | 269 kts | 92° |
| 2026-04-21 18:32 | 55.76314 | 11.63393 | 14626 ft | 268 kts | 92° |
| 2026-04-21 18:33 | 55.76129 | 11.66674 | 14300 ft | 266 kts | 93° |
| 2026-04-21 18:33 | 55.75947 | 11.69907 | 13982 ft | 264 kts | 93° |
| 2026-04-21 18:33 | 55.75762 | 11.73143 | 13661 ft | 263 kts | 93° |
| 2026-04-21 18:33 | 55.75576 | 11.76396 | 13349 ft | 272 kts | 93° |
| 2026-04-21 18:34 | 55.75382 | 11.79793 | 12998 ft | 278 kts | 93° |
| 2026-04-21 18:34 | 55.75183 | 11.83203 | 12664 ft | 278 kts | 93° |
| 2026-04-21 18:34 | 55.74985 | 11.86596 | 12336 ft | 277 kts | 93° |
| 2026-04-21 18:34 | 55.74788 | 11.89948 | 12004 ft | 276 kts | 93° |
| 2026-04-21 18:35 | 55.74655 | 11.92216 | 11775 ft | 276 kts | 93° |
| 2026-04-21 18:35 | 55.74389 | 11.96716 | 11330 ft | 274 kts | 93° |
| 2026-04-21 18:35 | 55.74190 | 12.00063 | 11003 ft | 274 kts | 93° |
| 2026-04-21 18:35 | 55.73990 | 12.03403 | 10665 ft | 273 kts | 93° |
| 2026-04-21 18:36 | 55.73790 | 12.06732 | 10338 ft | 273 kts | 93° |
| 2026-04-21 18:36 | 55.73586 | 12.10093 | 10016 ft | 271 kts | 93° |
| 2026-04-21 18:36 | 55.73386 | 12.13393 | 9703 ft | 270 kts | 93° |
| 2026-04-21 18:36 | 55.73185 | 12.16708 | 9409 ft | 268 kts | 93° |
| 2026-04-21 18:37 | 55.72987 | 12.19936 | 9340 ft | 267 kts | 93° |
| 2026-04-21 18:37 | 55.72977 | 12.23217 | 9312 ft | 264 kts | 76° |
| 2026-04-21 18:37 | 55.73529 | 12.26294 | 9327 ft | 263 kts | 67° |
| 2026-04-21 18:37 | 55.74211 | 12.29326 | 9322 ft | 263 kts | 66° |
| 2026-04-21 18:38 | 55.74884 | 12.32351 | 9164 ft | 259 kts | 67° |
| 2026-04-21 18:38 | 55.75525 | 12.35334 | 8730 ft | 260 kts | 68° |
| 2026-04-21 18:38 | 55.76152 | 12.38341 | 8336 ft | 260 kts | 68° |
| 2026-04-21 18:38 | 55.76766 | 12.41352 | 7960 ft | 259 kts | 68° |
| 2026-04-21 18:39 | 55.77372 | 12.44352 | 7568 ft | 257 kts | 68° |
| 2026-04-21 18:39 | 55.77963 | 12.47306 | 7200 ft | 256 kts | 68° |
| 2026-04-21 18:39 | 55.78559 | 12.50301 | 6816 ft | 254 kts | 68° |
| 2026-04-21 18:39 | 55.79137 | 12.53215 | 6442 ft | 253 kts | 68° |
| 2026-04-21 18:40 | 55.79723 | 12.56170 | 6051 ft | 253 kts | 68° |
| 2026-04-21 18:40 | 55.80305 | 12.59113 | 5654 ft | 252 kts | 68° |
| 2026-04-21 18:40 | 55.80689 | 12.61061 | 5389 ft | 252 kts | 68° |
| 2026-04-21 18:40 | 55.81458 | 12.64965 | 4842 ft | 253 kts | 68° |
| 2026-04-21 18:41 | 55.82035 | 12.67914 | 4432 ft | 253 kts | 68° |
| 2026-04-21 18:41 | 55.82611 | 12.70868 | 4138 ft | 249 kts | 68° |
| 2026-04-21 18:41 | 55.83165 | 12.73715 | 4018 ft | 238 kts | 68° |
| 2026-04-21 18:41 | 55.83695 | 12.76436 | 3943 ft | 225 kts | 68° |
| 2026-04-21 18:42 | 55.84266 | 12.78886 | 3923 ft | 211 kts | 64° |
| 2026-04-21 18:42 | 55.84689 | 12.81409 | 3932 ft | 213 kts | 69° |
| 2026-04-21 18:42 | 55.85375 | 12.83704 | 3801 ft | 210 kts | 50° |
| 2026-04-21 18:42 | 55.86292 | 12.85711 | 3542 ft | 208 kts | 46° |
| 2026-04-21 18:43 | 55.87190 | 12.87728 | 3270 ft | 210 kts | 59° |
| 2026-04-21 18:43 | 55.87475 | 12.90241 | 2992 ft | 217 kts | 95° |
| 2026-04-21 18:43 | 55.86837 | 12.92702 | 2942 ft | 226 kts | 131° |
| 2026-04-21 18:43 | 55.85484 | 12.94169 | 2926 ft | 231 kts | 166° |
| 2026-04-21 18:44 | 55.83889 | 12.94206 | 2948 ft | 233 kts | 190° |
| 2026-04-21 18:44 | 55.82310 | 12.93634 | 2938 ft | 234 kts | 194° |
| 2026-04-21 18:44 | 55.80730 | 12.92925 | 2929 ft | 234 kts | 198° |
| 2026-04-21 18:44 | 55.79208 | 12.91939 | 2928 ft | 233 kts | 207° |
| 2026-04-21 18:45 | 55.77816 | 12.90484 | 2933 ft | 231 kts | 218° |
| 2026-04-21 18:45 | 55.76603 | 12.88696 | 2938 ft | 218 kts | 226° |
| 2026-04-21 18:45 | 55.75531 | 12.86912 | 3013 ft | 208 kts | 226° |
| 2026-04-21 18:45 | 55.74478 | 12.85183 | 3005 ft | 208 kts | 225° |
| 2026-04-21 18:46 | 55.73393 | 12.83467 | 2870 ft | 207 kts | 224° |
| 2026-04-21 18:46 | 55.72315 | 12.81806 | 2608 ft | 205 kts | 224° |
| 2026-04-21 18:46 | 55.71242 | 12.80169 | 2328 ft | 200 kts | 224° |
| 2026-04-21 18:46 | 55.70224 | 12.78615 | 2082 ft | 186 kts | 225° |
| 2026-04-21 18:47 | 55.69276 | 12.77165 | 1805 ft | 173 kts | 226° |
| 2026-04-21 18:47 | 55.68386 | 12.75794 | 1569 ft | 169 kts | 225° |
| 2026-04-21 18:47 | 55.67529 | 12.74468 | 1329 ft | 159 kts | 225° |
| 2026-04-21 18:47 | 55.66719 | 12.73217 | 1118 ft | 154 kts | 224° |
| 2026-04-21 18:48 | 55.65913 | 12.71981 | 922 ft | 152 kts | 223° |
| 2026-04-21 18:48 | 55.65111 | 12.70762 | 741 ft | 151 kts | 223° |
| 2026-04-21 18:48 | 55.64328 | 12.69532 | 531 ft | 150 kts | 223° |
| 2026-04-21 18:48 | 55.63557 | 12.68328 | 323 ft | 148 kts | 222° |
| 2026-04-21 18:49 | 55.62778 | 12.67128 | 127 ft | 147 kts | 221° |
| 2026-04-21 18:49 | 55.62029 | 12.65964 | 18 ft | 136 kts | 221° |
| 2026-04-21 18:49 | 55.61599 | 12.65301 | 22 ft | 104 kts | 222° |
| 2026-04-21 18:49 | 55.61066 | 12.64472 | 24 ft | 63 kts | 222° |
| 2026-04-21 18:50 | 55.60770 | 12.64013 | 23 ft | 45 kts | 220° |
| 2026-04-21 18:50 | 55.60741 | 12.63678 | 22 ft | 17 kts | 308° |
| 2026-04-21 18:50 | 55.60820 | 12.63597 | 22 ft | 14 kts | 12° |
| 2026-04-21 18:50 | 55.60910 | 12.63685 | 22 ft | 15 kts | 35° |
| 2026-04-21 18:51 | 55.61002 | 12.63792 | 23 ft | 16 kts | 32° |
| 2026-04-21 18:51 | 55.61099 | 12.63904 | 23 ft | 17 kts | 33° |
| 2026-04-21 18:51 | 55.61200 | 12.64019 | 23 ft | 14 kts | 33° |
| 2026-04-21 18:51 | 55.61288 | 12.64123 | 23 ft | 16 kts | 34° |
| 2026-04-21 18:52 | 55.61386 | 12.64235 | 23 ft | 17 kts | 33° |
| 2026-04-21 18:52 | 55.61496 | 12.64361 | 22 ft | 20 kts | 33° |
| 2026-04-21 18:52 | 55.61618 | 12.64501 | 22 ft | 21 kts | 33° |
| 2026-04-21 18:52 | 55.61744 | 12.64646 | 22 ft | 21 kts | 33° |
| 2026-04-21 18:53 | 55.61864 | 12.64784 | 22 ft | 16 kts | 33° |
| 2026-04-21 18:53 | 55.61919 | 12.64847 | 21 ft | 5 kts | 33° |
| 2026-04-21 18:53 | 55.61940 | 12.64872 | 21 ft | 0 kts | 33° |
| 2026-04-21 18:55 | 55.61946 | 12.64878 | 21 ft | 3 kts | 33° |
| 2026-04-21 18:55 | 55.61995 | 12.64934 | 21 ft | 12 kts | 33° |
| 2026-04-21 18:56 | 55.62096 | 12.65049 | 21 ft | 20 kts | 34° |
| 2026-04-21 18:56 | 55.62217 | 12.65184 | 20 ft | 21 kts | 18° |
| 2026-04-21 18:56 | 55.62365 | 12.65204 | 19 ft | 21 kts | 360° |
| 2026-04-21 18:56 | 55.62502 | 12.65198 | 19 ft | 19 kts | 0° |
| 2026-04-21 18:57 | 55.62600 | 12.65196 | 19 ft | 8 kts | 359° |
| 2026-04-21 18:57 | 55.62635 | 12.65132 | 19 ft | 8 kts | 279° |
| 2026-04-21 18:57 | 55.62642 | 12.65054 | 20 ft | 2 kts | 278° |
| 2026-04-21 18:57 | 55.62642 | 12.65052 | 20 ft | 0 kts | 278° |